Time;durP1;ratioP1;P1;durP2;ratioP2;P2;SDS_P1;SDS_P2;PMS_P1;PMS_P2;Temp;Humidity;BMP_temperature;BMP_pressure;BME280_temperature;BME280_humidity;BME280_pressure;Samples;Min_cycle;Max_cycle;Signal;HPM_P1;HPM_P2
2023/10/22 00:00:07;;;;;;;2.33;1.30;;;;;;;;;;5038328;28;20045;-59
2023/10/22 00:02:34;;;;;;;2.40;1.23;;;;;;;;;;5037160;28;20073;-59
2023/10/22 00:04:59;;;;;;;3.55;1.70;;;;;;;;;;5038010;28;20538;-59
2023/10/22 00:07:25;;;;;;;2.58;1.45;;;;;;;;;;5040519;28;20091;-59
2023/10/22 00:09:51;;;;;;;2.63;1.50;;;;;;;;;;5033792;28;20034;-60
2023/10/22 00:12:16;;;;;;;3.10;1.50;;;;;;;;;;5039701;28;20691;-60
2023/10/22 00:14:42;;;;;;;3.08;1.40;;;;;;;;;;5037668;28;20139;-59
2023/10/22 00:17:07;;;;;;;2.63;1.40;;;;;;;;;;5035878;28;20029;-59
2023/10/22 00:19:33;;;;;;;2.30;1.23;;;;;;;;;;5037779;28;20025;-58
2023/10/22 00:21:59;;;;;;;2.67;1.38;;;;;;;;;;5033791;28;20045;-61
2023/10/22 00:24:24;;;;;;;2.95;1.35;;;;;;;;;;5034499;28;20060;-57
2023/10/22 00:26:50;;;;;;;2.78;1.40;;;;;;;;;;5037674;28;20090;-59
2023/10/22 00:29:15;;;;;;;2.47;1.42;;;;;;;;;;5035392;28;20049;-59
2023/10/22 00:31:41;;;;;;;2.92;1.35;;;;;;;;;;5036426;28;20041;-58
2023/10/22 00:34:07;;;;;;;2.25;1.10;;;;;;;;;;5037736;28;20095;-59
2023/10/22 00:36:32;;;;;;;3.05;1.20;;;;;;;;;;5036832;28;20494;-60
2023/10/22 00:38:58;;;;;;;3.38;1.38;;;;;;;;;;5035277;28;20045;-60
2023/10/22 00:41:23;;;;;;;2.67;1.38;;;;;;;;;;5035367;28;20108;-59
2023/10/22 00:43:50;;;;;;;3.03;1.40;;;;;;;;;;5038563;28;20578;-60
2023/10/22 00:46:23;;;;;;;3.40;1.20;;;;;;;;;;5038371;28;20804;-60
2023/10/22 00:48:49;;;;;;;2.58;1.30;;;;;;;;;;5032723;28;20162;-60
2023/10/22 00:51:15;;;;;;;2.63;1.35;;;;;;;;;;5034531;28;20495;-60
2023/10/22 00:53:42;;;;;;;2.67;1.27;;;;;;;;;;5034469;28;20079;-59
2023/10/22 00:56:08;;;;;;;3.65;1.40;;;;;;;;;;5035325;28;20835;-59
2023/10/22 00:58:34;;;;;;;2.70;1.30;;;;;;;;;;5035928;28;20065;-60
2023/10/22 01:01:03;;;;;;;2.80;1.25;;;;;;;;;;5035541;28;20052;-59
2023/10/22 01:03:29;;;;;;;2.75;1.40;;;;;;;;;;5035564;28;20061;-59
2023/10/22 01:05:54;;;;;;;3.45;1.45;;;;;;;;;;5034395;28;20538;-60
2023/10/22 01:08:20;;;;;;;3.15;1.40;;;;;;;;;;5032461;28;20128;-58
2023/10/22 01:10:46;;;;;;;2.22;1.20;;;;;;;;;;5033256;28;20083;-60
2023/10/22 01:13:11;;;;;;;2.28;1.20;;;;;;;;;;5035944;28;20033;-58
2023/10/22 01:15:37;;;;;;;2.53;1.20;;;;;;;;;;5037326;28;20642;-60
2023/10/22 01:18:03;;;;;;;2.28;1.10;;;;;;;;;;5038405;28;20087;-59
2023/10/22 01:20:28;;;;;;;2.38;1.20;;;;;;;;;;5032920;28;20041;-59
2023/10/22 01:22:54;;;;;;;3.30;1.30;;;;;;;;;;5037135;28;20087;-58
2023/10/22 01:25:19;;;;;;;3.00;1.15;;;;;;;;;;5036570;28;20038;-60
2023/10/22 01:27:45;;;;;;;2.53;1.30;;;;;;;;;;5034852;28;20048;-59
2023/10/22 01:30:11;;;;;;;2.67;1.30;;;;;;;;;;5035078;28;20083;-59
2023/10/22 01:32:36;;;;;;;2.45;1.20;;;;;;;;;;5037177;28;20037;-59
2023/10/22 01:35:02;;;;;;;2.08;1.02;;;;;;;;;;5034832;28;20049;-58
2023/10/22 01:37:27;;;;;;;2.65;1.23;;;;;;;;;;5033228;28;20056;-59
2023/10/22 01:39:54;;;;;;;2.65;1.30;;;;;;;;;;5036060;28;20437;-60
2023/10/22 01:42:19;;;;;;;2.33;1.10;;;;;;;;;;5035063;28;20068;-59
2023/10/22 01:44:45;;;;;;;2.35;1.10;;;;;;;;;;5035568;28;20067;-59
2023/10/22 01:47:12;;;;;;;3.17;1.25;;;;;;;;;;5034747;28;20034;-60
2023/10/22 01:49:38;;;;;;;3.35;1.15;;;;;;;;;;5032907;28;20053;-58
2023/10/22 01:52:04;;;;;;;2.00;1.00;;;;;;;;;;5032171;28;20103;-58
2023/10/22 01:54:29;;;;;;;2.50;1.20;;;;;;;;;;5034271;28;20057;-63
2023/10/22 01:56:55;;;;;;;2.38;1.25;;;;;;;;;;5034318;28;20414;-59
2023/10/22 01:59:20;;;;;;;1.98;0.95;;;;;;;;;;5037184;28;20114;-60
2023/10/22 02:01:46;;;;;;;2.20;1.10;;;;;;;;;;5036886;28;20029;-58
2023/10/22 02:04:12;;;;;;;2.25;1.15;;;;;;;;;;5036027;28;20427;-57
2023/10/22 02:06:37;;;;;;;2.47;1.27;;;;;;;;;;5034658;28;20067;-59
2023/10/22 02:09:03;;;;;;;3.45;1.30;;;;;;;;;;5034369;28;20041;-58
2023/10/22 02:11:30;;;;;;;2.00;1.00;;;;;;;;;;5035494;28;20067;-58
2023/10/22 02:13:55;;;;;;;2.10;0.90;;;;;;;;;;5032515;28;20068;-58
2023/10/22 02:16:23;;;;;;;2.45;1.17;;;;;;;;;;5036117;28;20037;-59
2023/10/22 02:18:48;;;;;;;2.33;1.10;;;;;;;;;;5032135;28;20057;-59
2023/10/22 02:21:15;;;;;;;2.42;1.10;;;;;;;;;;5033688;28;20703;-59
2023/10/22 02:23:41;;;;;;;2.63;1.10;;;;;;;;;;5034086;28;20480;-59
2023/10/22 02:26:07;;;;;;;2.20;1.08;;;;;;;;;;5032297;28;20045;-60
2023/10/22 02:28:33;;;;;;;2.20;1.10;;;;;;;;;;5036560;28;20060;-59
2023/10/22 02:30:58;;;;;;;2.47;1.10;;;;;;;;;;5031654;28;20032;-59
2023/10/22 02:33:24;;;;;;;2.58;1.10;;;;;;;;;;5035393;28;20426;-59
2023/10/22 02:35:51;;;;;;;2.55;0.90;;;;;;;;;;5033090;28;20084;-59
2023/10/22 02:38:17;;;;;;;2.10;1.00;;;;;;;;;;5035459;28;20099;-59
2023/10/22 02:40:43;;;;;;;1.80;0.90;;;;;;;;;;5035728;28;20069;-59
2023/10/22 02:43:08;;;;;;;2.92;0.95;;;;;;;;;;5033185;28;20065;-59
2023/10/22 02:45:34;;;;;;;2.40;1.10;;;;;;;;;;5034350;28;20095;-60
2023/10/22 02:48:00;;;;;;;2.08;0.98;;;;;;;;;;5032878;28;20032;-58
2023/10/22 02:50:26;;;;;;;2.47;1.30;;;;;;;;;;5033430;28;20041;-57
2023/10/22 02:52:52;;;;;;;2.40;1.05;;;;;;;;;;5034252;28;20037;-60
2023/10/22 02:55:18;;;;;;;2.38;1.02;;;;;;;;;;5031884;28;20137;-60
2023/10/22 02:57:43;;;;;;;2.70;1.10;;;;;;;;;;5034426;28;20061;-59
2023/10/22 03:00:12;;;;;;;2.00;0.90;;;;;;;;;;5035535;28;20695;-60
2023/10/22 03:02:38;;;;;;;2.17;0.90;;;;;;;;;;5035073;28;20473;-58
2023/10/22 03:05:04;;;;;;;2.30;0.95;;;;;;;;;;5033159;28;20050;-59
2023/10/22 03:07:29;;;;;;;2.13;0.80;;;;;;;;;;5032015;28;20445;-58
2023/10/22 03:09:55;;;;;;;3.95;1.10;;;;;;;;;;5032448;28;20072;-59
2023/10/22 03:12:21;;;;;;;2.17;0.93;;;;;;;;;;5032446;28;20033;-59
2023/10/22 03:14:48;;;;;;;1.90;0.90;;;;;;;;;;5021158;28;20049;-60
2023/10/22 03:17:13;;;;;;;2.33;1.00;;;;;;;;;;5033558;28;20072;-57
2023/10/22 03:19:39;;;;;;;2.67;1.08;;;;;;;;;;5031492;28;20033;-59
2023/10/22 03:22:04;;;;;;;2.85;1.00;;;;;;;;;;5035004;28;20045;-60
2023/10/22 03:24:31;;;;;;;2.28;0.90;;;;;;;;;;5031339;28;20037;-60
2023/10/22 03:26:57;;;;;;;1.83;0.82;;;;;;;;;;5036642;28;20041;-58
2023/10/22 03:29:22;;;;;;;2.13;0.88;;;;;;;;;;5032202;28;20531;-60
2023/10/22 03:31:48;;;;;;;3.15;1.25;;;;;;;;;;5038057;28;20155;-58
2023/10/22 03:34:14;;;;;;;2.65;1.17;;;;;;;;;;5036694;28;20041;-59
2023/10/22 03:36:39;;;;;;;2.15;1.00;;;;;;;;;;5040485;28;20107;-58
2023/10/22 03:39:06;;;;;;;2.67;1.20;;;;;;;;;;5038029;28;20502;-60
2023/10/22 03:41:33;;;;;;;1.70;0.80;;;;;;;;;;5036699;28;20201;-58
2023/10/22 03:43:58;;;;;;;2.10;0.90;;;;;;;;;;5035480;28;20072;-59
2023/10/22 03:46:24;;;;;;;2.28;1.00;;;;;;;;;;5021473;28;20375;-59
2023/10/22 03:48:50;;;;;;;2.03;1.00;;;;;;;;;;5038553;28;20056;-57
2023/10/22 03:51:15;;;;;;;1.73;0.85;;;;;;;;;;5036720;28;20025;-60
2023/10/22 03:53:41;;;;;;;1.83;0.80;;;;;;;;;;5036101;28;20029;-59
2023/10/22 03:56:09;;;;;;;1.90;0.90;;;;;;;;;;5037800;28;20154;-58
2023/10/22 03:58:35;;;;;;;2.10;0.82;;;;;;;;;;5036329;28;20071;-59
2023/10/22 04:01:01;;;;;;;1.75;0.82;;;;;;;;;;5039106;28;20048;-59
2023/10/22 04:03:26;;;;;;;2.97;1.20;;;;;;;;;;5038401;28;20711;-59
2023/10/22 04:05:58;;;;;;;1.48;0.80;;;;;;;;;;5036186;28;20041;-59
2023/10/22 04:08:24;;;;;;;2.03;1.00;;;;;;;;;;5037292;28;20073;-59
2023/10/22 04:10:50;;;;;;;2.50;1.00;;;;;;;;;;5034283;28;20502;-59
2023/10/22 04:13:16;;;;;;;3.20;1.00;;;;;;;;;;5031314;28;20519;-59
2023/10/22 04:15:41;;;;;;;1.90;0.85;;;;;;;;;;5038904;28;20044;-59
2023/10/22 04:18:07;;;;;;;1.80;0.90;;;;;;;;;;5040021;28;20489;-56
2023/10/22 04:20:35;;;;;;;2.22;0.90;;;;;;;;;;5035365;28;20033;-58
2023/10/22 04:23:01;;;;;;;1.98;0.80;;;;;;;;;;5036259;28;20135;-57
2023/10/22 04:25:28;;;;;;;3.20;1.10;;;;;;;;;;5037459;28;20052;-58
2023/10/22 04:27:54;;;;;;;2.00;1.00;;;;;;;;;;5039706;28;20068;-59
2023/10/22 04:30:19;;;;;;;1.90;0.90;;;;;;;;;;5035881;28;20577;-58
2023/10/22 04:32:45;;;;;;;3.20;1.35;;;;;;;;;;5036839;28;20045;-59
2023/10/22 04:35:11;;;;;;;1.92;0.93;;;;;;;;;;5037534;28;20037;-60
2023/10/22 04:37:36;;;;;;;2.33;0.98;;;;;;;;;;5036223;28;20102;-59
2023/10/22 04:40:02;;;;;;;2.30;0.82;;;;;;;;;;5036850;28;20041;-59
2023/10/22 04:42:28;;;;;;;1.75;0.82;;;;;;;;;;5034875;28;20073;-59
2023/10/22 04:44:53;;;;;;;4.20;1.00;;;;;;;;;;5037528;28;20197;-59
2023/10/22 04:47:19;;;;;;;2.75;0.98;;;;;;;;;;5036257;28;20044;-58
2023/10/22 04:49:47;;;;;;;2.72;0.95;;;;;;;;;;5037701;28;20076;-60
2023/10/22 04:52:22;;;;;;;2.25;0.93;;;;;;;;;;5037104;28;20443;-59
2023/10/22 04:54:48;;;;;;;;;;;;;;;;;;5035726;28;20083;-59
2023/10/22 04:57:13;;;;;;;1.85;0.70;;;;;;;;;;5035627;28;20370;-60
2023/10/22 04:59:39;;;;;;;2.10;0.90;;;;;;;;;;5036279;28;20042;-56
2023/10/22 05:02:04;;;;;;;2.33;0.82;;;;;;;;;;5035070;28;20482;-59
2023/10/22 05:04:30;;;;;;;2.22;1.00;;;;;;;;;;5037424;28;20091;-58
2023/10/22 05:06:57;;;;;;;2.42;0.93;;;;;;;;;;5036689;28;20048;-57
2023/10/22 05:09:22;;;;;;;1.70;0.73;;;;;;;;;;5035701;28;20072;-58
2023/10/22 05:11:48;;;;;;;1.90;0.93;;;;;;;;;;5037966;28;20693;-58
2023/10/22 05:14:13;;;;;;;1.70;0.90;;;;;;;;;;5038004;28;20034;-59
2023/10/22 05:16:39;;;;;;;2.50;1.10;;;;;;;;;;5036009;28;20032;-58
2023/10/22 05:19:04;;;;;;;2.00;0.80;;;;;;;;;;5034900;28;20138;-59
2023/10/22 05:21:30;;;;;;;2.28;0.90;;;;;;;;;;5037880;28;20713;-59
2023/10/22 05:23:56;;;;;;;2.00;0.85;;;;;;;;;;5035968;28;20041;-60
2023/10/22 05:26:22;;;;;;;2.35;1.00;;;;;;;;;;5039606;28;20045;-59
2023/10/22 05:28:47;;;;;;;2.10;0.90;;;;;;;;;;5036361;28;20080;-57
2023/10/22 05:31:14;;;;;;;1.80;0.90;;;;;;;;;;5035223;28;20045;-60
2023/10/22 05:33:40;;;;;;;3.03;0.98;;;;;;;;;;5033125;28;20059;-58
2023/10/22 05:36:13;;;;;;;1.75;0.70;;;;;;;;;;5032795;28;20046;-59
2023/10/22 05:38:38;;;;;;;1.75;0.73;;;;;;;;;;5034785;28;20072;-58
2023/10/22 05:41:04;;;;;;;2.47;0.88;;;;;;;;;;5032168;28;20030;-60
2023/10/22 05:43:29;;;;;;;1.80;0.90;;;;;;;;;;5035532;28;20111;-60
2023/10/22 05:45:56;;;;;;;2.00;1.00;;;;;;;;;;5036063;28;20103;-59
2023/10/22 05:48:22;;;;;;;2.17;0.93;;;;;;;;;;5034902;28;20103;-58
2023/10/22 05:50:47;;;;;;;2.13;0.80;;;;;;;;;;5036097;28;20041;-59
2023/10/22 05:53:13;;;;;;;2.10;0.90;;;;;;;;;;5037163;28;20552;-58
2023/10/22 05:55:38;;;;;;;2.13;0.80;;;;;;;;;;5032056;28;20025;-57
2023/10/22 05:58:06;;;;;;;2.38;0.80;;;;;;;;;;5035775;28;20045;-59
2023/10/22 06:00:31;;;;;;;2.13;0.90;;;;;;;;;;5019075;28;20060;-58
2023/10/22 06:02:57;;;;;;;2.70;0.80;;;;;;;;;;5037159;28;20037;-59
2023/10/22 06:05:23;;;;;;;3.13;0.80;;;;;;;;;;5034276;28;20091;-58
2023/10/22 06:07:49;;;;;;;1.83;0.80;;;;;;;;;;5033131;28;20462;-58
2023/10/22 06:10:14;;;;;;;1.58;0.70;;;;;;;;;;5033143;28;20041;-59
2023/10/22 06:12:40;;;;;;;2.95;1.05;;;;;;;;;;5033384;28;20025;-59
2023/10/22 06:15:06;;;;;;;2.00;0.90;;;;;;;;;;5036088;28;20552;-59
2023/10/22 06:17:31;;;;;;;2.10;0.90;;;;;;;;;;5033895;28;20037;-59
2023/10/22 06:19:57;;;;;;;2.30;0.80;;;;;;;;;;5035658;28;20033;-59
2023/10/22 06:22:23;;;;;;;1.95;0.80;;;;;;;;;;5035670;28;20114;-57
2023/10/22 06:24:48;;;;;;;1.60;0.80;;;;;;;;;;5036691;28;20041;-59
2023/10/22 06:27:14;;;;;;;1.85;0.75;;;;;;;;;;5031857;28;20048;-60
2023/10/22 06:29:39;;;;;;;2.30;0.90;;;;;;;;;;5033623;28;20523;-58
2023/10/22 06:32:05;;;;;;;2.15;0.85;;;;;;;;;;5032644;28;20041;-59
2023/10/22 06:34:31;;;;;;;3.20;0.85;;;;;;;;;;5035510;28;20041;-58
2023/10/22 06:36:56;;;;;;;1.67;0.73;;;;;;;;;;5035266;28;21015;-58
2023/10/22 06:39:22;;;;;;;3.78;0.95;;;;;;;;;;5035804;28;20032;-60
2023/10/22 06:41:47;;;;;;;2.42;0.98;;;;;;;;;;5018328;28;20086;-58
2023/10/22 06:44:13;;;;;;;1.83;0.73;;;;;;;;;;5035107;28;20036;-59
2023/10/22 06:46:38;;;;;;;2.17;0.80;;;;;;;;;;5034340;28;20029;-57
2023/10/22 06:49:04;;;;;;;1.77;0.77;;;;;;;;;;5031794;28;20068;-59
2023/10/22 06:51:30;;;;;;;1.95;0.98;;;;;;;;;;5033783;28;20037;-58
2023/10/22 06:53:55;;;;;;;1.92;0.90;;;;;;;;;;5034816;28;20037;-58
2023/10/22 06:56:21;;;;;;;2.03;0.80;;;;;;;;;;5036471;28;20091;-58
2023/10/22 06:58:46;;;;;;;1.75;0.90;;;;;;;;;;5034435;28;20099;-58
2023/10/22 07:01:13;;;;;;;1.83;0.70;;;;;;;;;;5020090;28;20498;-58
2023/10/22 07:03:42;;;;;;;1.67;0.68;;;;;;;;;;5033868;28;20673;-58
2023/10/22 07:06:08;;;;;;;2.33;0.70;;;;;;;;;;5035137;28;20060;-58
2023/10/22 07:08:33;;;;;;;1.80;0.80;;;;;;;;;;5040663;28;20465;-60
2023/10/22 07:10:59;;;;;;;1.80;0.80;;;;;;;;;;5039251;28;20045;-59
2023/10/22 07:13:25;;;;;;;2.45;0.82;;;;;;;;;;5036854;28;20056;-58
2023/10/22 07:15:51;;;;;;;1.90;0.80;;;;;;;;;;5043468;28;20029;-58
2023/10/22 07:18:17;;;;;;;2.10;0.82;;;;;;;;;;5026304;28;20090;-58
2023/10/22 07:20:42;;;;;;;2.33;0.90;;;;;;;;;;5036378;28;20037;-58
2023/10/22 07:23:08;;;;;;;1.92;0.75;;;;;;;;;;5039586;28;20068;-60
2023/10/22 07:25:34;;;;;;;2.58;0.90;;;;;;;;;;5041113;28;20119;-60
2023/10/22 07:27:59;;;;;;;1.85;0.70;;;;;;;;;;5036682;28;20033;-57
2023/10/22 07:30:25;;;;;;;1.92;0.85;;;;;;;;;;5037491;28;20465;-59
2023/10/22 07:32:51;;;;;;;1.58;0.60;;;;;;;;;;5038866;28;20037;-59
2023/10/22 07:35:17;;;;;;;2.00;0.90;;;;;;;;;;5037251;28;20053;-57
2023/10/22 07:37:44;;;;;;;1.80;0.70;;;;;;;;;;5036788;28;20055;-58
2023/10/22 07:40:10;;;;;;;2.70;0.70;;;;;;;;;;5039276;28;20166;-57
2023/10/22 07:42:36;;;;;;;2.53;0.70;;;;;;;;;;5038781;28;20083;-59
2023/10/22 07:45:01;;;;;;;2.08;0.80;;;;;;;;;;5022570;28;20037;-57
2023/10/22 07:47:27;;;;;;;2.22;0.70;;;;;;;;;;5036072;28;20063;-58
2023/10/22 07:49:52;;;;;;;3.53;0.93;;;;;;;;;;5036992;28;20063;-59
2023/10/22 07:52:18;;;;;;;1.88;0.80;;;;;;;;;;5034119;28;20708;-59
2023/10/22 07:54:47;;;;;;;2.50;0.82;;;;;;;;;;5035234;28;20037;-58
2023/10/22 07:57:12;;;;;;;2.10;0.90;;;;;;;;;;5037663;28;20057;-59
2023/10/22 07:59:38;;;;;;;2.08;0.75;;;;;;;;;;5038094;28;20087;-57
2023/10/22 08:02:04;;;;;;;2.03;0.80;;;;;;;;;;5035962;28;20453;-59
2023/10/22 08:04:29;;;;;;;2.22;0.80;;;;;;;;;;5038008;28;20071;-60
2023/10/22 08:06:55;;;;;;;1.95;0.80;;;;;;;;;;5035434;28;20034;-58
2023/10/22 08:09:20;;;;;;;2.40;0.82;;;;;;;;;;5037540;28;20450;-58
2023/10/22 08:11:46;;;;;;;1.58;0.70;;;;;;;;;;5033879;28;20080;-60
2023/10/22 08:14:11;;;;;;;2.08;0.68;;;;;;;;;;5037726;28;20081;-59
2023/10/22 08:16:37;;;;;;;2.25;1.00;;;;;;;;;;5036676;28;20045;-57
2023/10/22 08:19:03;;;;;;;2.00;0.70;;;;;;;;;;5037189;28;20037;-59
2023/10/22 08:21:28;;;;;;;3.03;0.75;;;;;;;;;;5035075;28;20056;-60
2023/10/22 08:23:54;;;;;;;2.50;0.80;;;;;;;;;;5037105;28;20037;-60
2023/10/22 08:26:21;;;;;;;1.48;0.68;;;;;;;;;;5037520;28;20132;-59
2023/10/22 08:28:46;;;;;;;2.03;0.63;;;;;;;;;;5035570;28;20073;-58
2023/10/22 08:31:12;;;;;;;1.50;0.70;;;;;;;;;;5034441;28;20083;-59
2023/10/22 08:33:38;;;;;;;1.60;0.70;;;;;;;;;;5038902;28;20041;-57
2023/10/22 08:36:04;;;;;;;1.98;0.70;;;;;;;;;;5035195;28;20119;-60
2023/10/22 08:38:30;;;;;;;2.05;0.90;;;;;;;;;;5034457;28;20080;-60
2023/10/22 08:40:56;;;;;;;3.42;0.73;;;;;;;;;;5036220;28;20042;-58
2023/10/22 08:43:22;;;;;;;7.05;0.85;;;;;;;;;;5035289;28;20040;-59
2023/10/22 08:45:50;;;;;;;1.42;0.60;;;;;;;;;;5037240;28;20044;-59
2023/10/22 08:48:17;;;;;;;3.10;0.80;;;;;;;;;;5037336;28;20566;-61
2023/10/22 08:50:43;;;;;;;2.08;0.70;;;;;;;;;;5034135;28;20079;-59
2023/10/22 08:53:11;;;;;;;2.92;0.70;;;;;;;;;;5035393;28;20072;-58
2023/10/22 08:55:36;;;;;;;3.22;0.93;;;;;;;;;;5036521;28;20060;-60
2023/10/22 08:58:02;;;;;;;1.70;0.77;;;;;;;;;;5035445;28;20461;-57
2023/10/22 09:00:28;;;;;;;2.58;1.02;;;;;;;;;;5039075;28;20037;-59
2023/10/22 09:02:53;;;;;;;2.80;1.20;;;;;;;;;;5034539;28;20138;-59
2023/10/22 09:05:19;;;;;;;2.45;1.10;;;;;;;;;;5034931;28;20507;-59
2023/10/22 09:07:52;;;;;;;3.47;0.95;;;;;;;;;;5034309;28;20064;-59
2023/10/22 09:10:31;;;;;;;2.15;0.95;;;;;;;;;;5036982;28;20146;-59
2023/10/22 09:13:23;;;;;;;3.22;0.80;;;;;;;;;;5033373;28;20087;-59
2023/10/22 09:15:49;;;;;;;6.20;1.38;;;;;;;;;;5031414;28;20056;-58
2023/10/22 09:18:15;;;;;;;2.72;1.02;;;;;;;;;;5034378;28;20770;-60
2023/10/22 09:20:41;;;;;;;3.38;1.20;;;;;;;;;;5035214;28;20069;-59
2023/10/22 09:23:20;;;;;;;2.55;0.95;;;;;;;;;;5035384;28;20459;-60
2023/10/22 09:25:47;;;;;;;2.10;0.90;;;;;;;;;;5034406;28;20631;-59
2023/10/22 09:28:14;;;;;;;2.55;1.20;;;;;;;;;;5032270;28;20150;-57
2023/10/22 09:30:40;;;;;;;2.03;0.93;;;;;;;;;;5033096;28;20077;-57
2023/10/22 09:33:08;;;;;;;2.78;1.13;;;;;;;;;;5033896;28;20147;-58
2023/10/22 09:35:34;;;;;;;2.58;0.90;;;;;;;;;;5034761;28;20060;-58
2023/10/22 09:38:00;;;;;;;7.63;0.90;;;;;;;;;;5032518;28;20152;-58
2023/10/22 09:40:25;;;;;;;2.33;0.90;;;;;;;;;;5035079;28;20041;-57
2023/10/22 09:42:51;;;;;;;3.05;1.08;;;;;;;;;;5035172;28;20086;-59
2023/10/22 09:45:17;;;;;;;3.90;1.00;;;;;;;;;;5031517;28;20065;-58
2023/10/22 09:47:45;;;;;;;2.20;0.93;;;;;;;;;;5033860;28;20033;-58
2023/10/22 09:50:14;;;;;;;3.00;1.00;;;;;;;;;;5033919;28;20057;-59
2023/10/22 09:52:42;;;;;;;2.45;1.05;;;;;;;;;;5032275;28;20025;-58
2023/10/22 09:55:12;;;;;;;1.73;0.73;;;;;;;;;;5037050;28;20068;-59
2023/10/22 09:57:39;;;;;;;3.30;1.00;;;;;;;;;;5032695;28;20076;-57
2023/10/22 10:00:10;;;;;;;1.95;0.90;;;;;;;;;;5033602;28;20069;-60
2023/10/22 10:02:35;;;;;;;2.40;1.08;;;;;;;;;;5035736;28;20115;-60
2023/10/22 10:05:04;;;;;;;3.63;1.00;;;;;;;;;;5032582;28;20554;-58
2023/10/22 10:07:31;;;;;;;2.63;0.80;;;;;;;;;;5034545;28;20061;-60
2023/10/22 10:09:57;;;;;;;2.75;0.90;;;;;;;;;;5030938;28;20096;-58
2023/10/22 10:12:24;;;;;;;3.63;1.00;;;;;;;;;;5031783;28;20550;-59
2023/10/22 10:14:50;;;;;;;1.92;0.70;;;;;;;;;;5032711;28;20567;-57
2023/10/22 10:17:18;;;;;;;1.80;0.82;;;;;;;;;;5032885;28;20045;-59
2023/10/22 10:19:47;;;;;;;2.17;1.05;;;;;;;;;;5030761;28;20053;-59
2023/10/22 10:22:31;;;;;;;2.40;0.90;;;;;;;;;;5033061;28;20068;-60
2023/10/22 10:25:16;;;;;;;2.67;0.90;;;;;;;;;;5033775;28;20053;-59
2023/10/22 10:27:42;;;;;;;;;;;;;;;;;;5036343;28;20065;-57
2023/10/22 10:30:14;;;;;;;2.03;0.80;;;;;;;;;;5035032;28;20357;-63
2023/10/22 10:32:43;;;;;;;1.98;0.90;;;;;;;;;;5032734;28;20084;-59
2023/10/22 10:35:09;;;;;;;2.40;0.88;;;;;;;;;;5034361;28;20072;-59
2023/10/22 10:37:34;;;;;;;1.83;0.80;;;;;;;;;;5035272;28;20036;-57
2023/10/22 10:40:00;;;;;;;1.90;0.70;;;;;;;;;;5033224;28;20553;-59
2023/10/22 10:42:28;;;;;;;2.00;0.90;;;;;;;;;;5034151;28;20033;-58
2023/10/22 10:44:57;;;;;;;1.88;0.77;;;;;;;;;;5031922;28;20583;-59
2023/10/22 10:47:22;;;;;;;1.92;0.82;;;;;;;;;;5032257;28;20134;-59
2023/10/22 10:49:59;;;;;;;1.70;0.70;;;;;;;;;;5033645;28;20033;-59
2023/10/22 10:52:25;;;;;;;2.45;0.82;;;;;;;;;;5032356;28;20061;-59
2023/10/22 10:55:00;;;;;;;2.30;0.80;;;;;;;;;;5035063;28;20094;-57
2023/10/22 10:57:41;;;;;;;1.90;0.80;;;;;;;;;;5035466;28;20126;-56
2023/10/22 11:00:13;;;;;;;1.52;0.57;;;;;;;;;;5033866;28;20029;-58
2023/10/22 11:02:42;;;;;;;2.28;0.82;;;;;;;;;;5034235;28;20072;-58
2023/10/22 11:05:08;;;;;;;1.92;0.73;;;;;;;;;;5034048;28;20075;-59
2023/10/22 11:07:34;;;;;;;1.95;0.85;;;;;;;;;;5033126;28;20045;-58
2023/10/22 11:10:06;;;;;;;2.70;0.90;;;;;;;;;;5029665;28;20051;-58
2023/10/22 11:12:31;;;;;;;1.80;0.70;;;;;;;;;;5034859;28;20124;-59
2023/10/22 11:14:57;;;;;;;1.60;0.70;;;;;;;;;;5033802;28;20063;-59
2023/10/22 11:17:23;;;;;;;1.77;0.60;;;;;;;;;;5033572;28;20556;-57
2023/10/22 11:19:51;;;;;;;2.42;0.80;;;;;;;;;;5035182;28;20029;-59
2023/10/22 11:22:17;;;;;;;1.35;0.65;;;;;;;;;;5034262;28;20551;-57
2023/10/22 11:24:43;;;;;;;1.85;0.80;;;;;;;;;;5034465;28;20102;-57
2023/10/22 11:27:09;;;;;;;2.60;0.80;;;;;;;;;;5035032;28;20037;-58
2023/10/22 11:29:40;;;;;;;1.60;0.70;;;;;;;;;;5033885;28;20036;-56
2023/10/22 11:32:10;;;;;;;2.67;0.90;;;;;;;;;;5033831;28;20069;-58
2023/10/22 11:34:35;;;;;;;1.67;0.70;;;;;;;;;;5032806;28;20053;-57
2023/10/22 11:37:01;;;;;;;1.75;0.80;;;;;;;;;;5030048;28;20094;-57
2023/10/22 11:39:34;;;;;;;2.15;0.80;;;;;;;;;;5031686;28;20651;-57
2023/10/22 11:42:00;;;;;;;2.72;0.73;;;;;;;;;;5032406;28;20069;-58
2023/10/22 11:44:32;;;;;;;1.80;0.63;;;;;;;;;;5031597;28;20037;-56
2023/10/22 11:47:01;;;;;;;3.25;0.63;;;;;;;;;;5033957;28;20072;-57
2023/10/22 11:49:27;;;;;;;3.17;0.70;;;;;;;;;;5034277;28;20065;-58
2023/10/22 11:51:53;;;;;;;2.90;0.80;;;;;;;;;;5036056;28;20125;-57
2023/10/22 11:54:20;;;;;;;1.80;0.70;;;;;;;;;;5038374;28;20052;-58
2023/10/22 11:56:47;;;;;;;1.70;0.73;;;;;;;;;;5035952;28;20140;-57
2023/10/22 11:59:12;;;;;;;1.73;0.70;;;;;;;;;;5036742;28;20084;-58
2023/10/22 12:01:40;;;;;;;1.95;0.80;;;;;;;;;;5035136;28;20446;-57
2023/10/22 12:04:05;;;;;;;1.67;0.63;;;;;;;;;;5035532;28;20506;-61
2023/10/22 12:06:31;;;;;;;2.15;0.82;;;;;;;;;;5037917;28;20044;-57
2023/10/22 12:08:57;;;;;;;1.95;0.70;;;;;;;;;;5032408;28;20074;-59
2023/10/22 12:11:22;;;;;;;1.75;0.63;;;;;;;;;;5038682;28;20474;-58
2023/10/22 12:13:48;;;;;;;3.10;0.90;;;;;;;;;;5036089;28;20029;-59
2023/10/22 12:16:13;;;;;;;2.50;0.70;;;;;;;;;;5039908;28;20075;-57
2023/10/22 12:18:39;;;;;;;2.38;0.77;;;;;;;;;;5037037;28;20658;-58
2023/10/22 12:21:04;;;;;;;2.00;0.80;;;;;;;;;;5034989;28;20049;-57
2023/10/22 12:23:30;;;;;;;2.28;0.60;;;;;;;;;;5037518;28;20056;-58
2023/10/22 12:25:56;;;;;;;1.60;0.70;;;;;;;;;;5036389;28;20036;-59
2023/10/22 12:28:24;;;;;;;1.90;0.73;;;;;;;;;;5034931;28;20095;-56
2023/10/22 12:30:50;;;;;;;1.85;0.60;;;;;;;;;;5034237;28;20069;-57
2023/10/22 12:33:15;;;;;;;2.20;0.77;;;;;;;;;;5035347;28;20135;-57
2023/10/22 12:35:41;;;;;;;1.88;0.70;;;;;;;;;;5036189;28;20033;-58
2023/10/22 12:38:06;;;;;;;1.35;0.60;;;;;;;;;;5035406;28;20079;-58
2023/10/22 12:40:32;;;;;;;1.95;0.70;;;;;;;;;;5037315;28;20619;-58
2023/10/22 12:42:58;;;;;;;1.67;0.70;;;;;;;;;;5037094;28;20040;-57
2023/10/22 12:45:23;;;;;;;1.63;0.65;;;;;;;;;;5037734;28;20107;-57
2023/10/22 12:47:49;;;;;;;2.10;0.70;;;;;;;;;;5038711;28;20388;-57
2023/10/22 12:50:14;;;;;;;1.55;0.60;;;;;;;;;;5033926;28;20045;-56
2023/10/22 12:52:40;;;;;;;1.33;0.52;;;;;;;;;;5038526;28;20075;-58
2023/10/22 12:55:06;;;;;;;1.73;0.60;;;;;;;;;;5037081;28;20037;-58
2023/10/22 12:57:32;;;;;;;2.10;0.70;;;;;;;;;;5033873;28;20025;-57
2023/10/22 12:59:57;;;;;;;2.75;0.80;;;;;;;;;;5034774;28;20029;-56
2023/10/22 13:02:23;;;;;;;1.70;0.60;;;;;;;;;;5033579;28;20041;-58
2023/10/22 13:04:49;;;;;;;1.48;0.60;;;;;;;;;;5035342;28;20625;-59
2023/10/22 13:07:15;;;;;;;1.13;0.60;;;;;;;;;;5037412;28;20049;-58
2023/10/22 13:09:41;;;;;;;1.02;0.50;;;;;;;;;;5034522;28;20115;-58
2023/10/22 13:12:06;;;;;;;2.50;0.80;;;;;;;;;;5035852;28;20029;-59
2023/10/22 13:14:32;;;;;;;2.10;0.70;;;;;;;;;;5036144;28;20029;-57
2023/10/22 13:16:58;;;;;;;1.50;0.65;;;;;;;;;;5035744;28;20392;-59
2023/10/22 13:19:23;;;;;;;1.38;0.57;;;;;;;;;;5037421;28;20048;-58
2023/10/22 13:21:49;;;;;;;1.55;0.60;;;;;;;;;;5033337;28;20067;-58
2023/10/22 13:24:14;;;;;;;2.10;0.70;;;;;;;;;;5034793;28;20619;-58
2023/10/22 13:26:40;;;;;;;2.05;0.80;;;;;;;;;;5035682;28;20045;-58
2023/10/22 13:29:06;;;;;;;1.50;0.70;;;;;;;;;;5035773;28;20756;-59
2023/10/22 13:31:32;;;;;;;1.45;0.70;;;;;;;;;;5033168;28;20051;-57
2023/10/22 13:33:57;;;;;;;1.50;0.60;;;;;;;;;;5035025;28;20913;-57
2023/10/22 13:36:23;;;;;;;1.55;0.57;;;;;;;;;;5038161;28;20078;-57
2023/10/22 13:38:49;;;;;;;1.58;0.50;;;;;;;;;;5038019;28;20029;-57
2023/10/22 13:41:14;;;;;;;1.35;0.70;;;;;;;;;;5034378;28;20041;-56
2023/10/22 13:43:40;;;;;;;1.13;0.50;;;;;;;;;;5036748;28;20095;-58
2023/10/22 13:46:05;;;;;;;1.75;0.68;;;;;;;;;;5033743;28;20043;-59
2023/10/22 13:48:31;;;;;;;2.05;0.63;;;;;;;;;;5034924;28;20025;-57
2023/10/22 13:50:58;;;;;;;1.75;0.88;;;;;;;;;;5032915;28;20102;-56
2023/10/22 13:53:24;;;;;;;2.00;0.60;;;;;;;;;;5036877;28;20304;-57
2023/10/22 13:55:59;;;;;;;1.58;0.70;;;;;;;;;;5037003;28;20061;-58
2023/10/22 13:58:24;;;;;;;1.80;0.70;;;;;;;;;;5033416;28;20080;-56
2023/10/22 14:00:50;;;;;;;1.70;0.50;;;;;;;;;;5031645;28;20034;-59
2023/10/22 14:03:16;;;;;;;1.15;0.60;;;;;;;;;;5036005;28;20751;-57
2023/10/22 14:05:51;;;;;;;1.88;0.70;;;;;;;;;;5035500;28;20491;-59
2023/10/22 14:08:17;;;;;;;1.80;0.60;;;;;;;;;;5035062;28;20079;-59
2023/10/22 14:10:43;;;;;;;1.50;0.60;;;;;;;;;;5034599;28;20077;-60
2023/10/22 14:13:09;;;;;;;1.67;0.60;;;;;;;;;;5032924;28;20036;-60
2023/10/22 14:15:34;;;;;;;1.45;0.60;;;;;;;;;;5036735;28;20552;-59
2023/10/22 14:18:00;;;;;;;1.08;0.50;;;;;;;;;;5034254;28;20144;-59
2023/10/22 14:20:26;;;;;;;2.33;0.80;;;;;;;;;;5036635;28;20033;-57
2023/10/22 14:22:51;;;;;;;1.65;0.63;;;;;;;;;;5033351;28;20091;-59
2023/10/22 14:25:17;;;;;;;1.08;0.50;;;;;;;;;;5030871;28;20619;-57
2023/10/22 14:27:44;;;;;;;1.10;0.50;;;;;;;;;;5032669;28;20045;-58
2023/10/22 14:30:10;;;;;;;1.13;0.50;;;;;;;;;;5032656;28;20347;-57
2023/10/22 14:32:36;;;;;;;2.97;0.73;;;;;;;;;;5029978;28;20039;-58
2023/10/22 14:35:02;;;;;;;2.83;0.70;;;;;;;;;;5034776;28;20039;-59
2023/10/22 14:37:28;;;;;;;1.50;0.70;;;;;;;;;;5035328;28;20029;-59